sensor_id;sensor_type;location;lat;lon;timestamp;P1;durP1;ratioP1;P2;durP2;ratioP2
31368;SDS011;18004;48.416;10.066;2023-02-28T00:00:26;1.83;;;1.02;;
31368;SDS011;18004;48.416;10.066;2023-02-28T00:02:52;1.15;;;1.05;;
31368;SDS011;18004;48.416;10.066;2023-02-28T00:05:19;4.55;;;1.10;;
31368;SDS011;18004;48.416;10.066;2023-02-28T00:07:47;1.50;;;1.10;;
31368;SDS011;18004;48.416;10.066;2023-02-28T00:10:16;1.10;;;1.00;;
31368;SDS011;18004;48.416;10.066;2023-02-28T00:13:02;0.95;;;0.88;;
31368;SDS011;18004;48.416;10.066;2023-02-28T00:15:30;0.85;;;0.63;;
31368;SDS011;18004;48.416;10.066;2023-02-28T00:17:57;1.90;;;1.17;;
31368;SDS011;18004;48.416;10.066;2023-02-28T00:20:23;1.30;;;1.10;;
31368;SDS011;18004;48.416;10.066;2023-02-28T00:22:50;1.15;;;1.05;;
31368;SDS011;18004;48.416;10.066;2023-02-28T00:25:21;3.67;;;1.05;;
31368;SDS011;18004;48.416;10.066;2023-02-28T00:27:48;1.38;;;0.95;;
31368;SDS011;18004;48.416;10.066;2023-02-28T00:30:16;1.95;;;1.10;;
31368;SDS011;18004;48.416;10.066;2023-02-28T00:32:43;1.65;;;0.98;;
31368;SDS011;18004;48.416;10.066;2023-02-28T00:35:09;2.17;;;0.80;;
31368;SDS011;18004;48.416;10.066;2023-02-28T00:37:36;1.90;;;1.00;;
31368;SDS011;18004;48.416;10.066;2023-02-28T00:40:02;3.53;;;0.98;;
31368;SDS011;18004;48.416;10.066;2023-02-28T00:42:30;1.67;;;0.90;;
31368;SDS011;18004;48.416;10.066;2023-02-28T00:44:57;1.60;;;0.80;;
31368;SDS011;18004;48.416;10.066;2023-02-28T00:47:22;0.77;;;0.77;;
31368;SDS011;18004;48.416;10.066;2023-02-28T00:49:48;1.25;;;1.05;;
31368;SDS011;18004;48.416;10.066;2023-02-28T00:52:14;2.20;;;1.15;;
31368;SDS011;18004;48.416;10.066;2023-02-28T00:54:39;6.53;;;1.35;;
31368;SDS011;18004;48.416;10.066;2023-02-28T00:57:05;0.85;;;0.73;;
31368;SDS011;18004;48.416;10.066;2023-02-28T00:59:31;1.75;;;1.30;;
31368;SDS011;18004;48.416;10.066;2023-02-28T01:01:57;2.15;;;1.70;;
31368;SDS011;18004;48.416;10.066;2023-02-28T01:04:22;1.58;;;1.15;;
31368;SDS011;18004;48.416;10.066;2023-02-28T01:06:48;1.85;;;0.77;;
31368;SDS011;18004;48.416;10.066;2023-02-28T01:09:14;1.20;;;0.63;;
31368;SDS011;18004;48.416;10.066;2023-02-28T01:11:40;4.57;;;0.98;;
31368;SDS011;18004;48.416;10.066;2023-02-28T01:14:10;7.25;;;1.70;;
31368;SDS011;18004;48.416;10.066;2023-02-28T01:19:05;0.95;;;0.82;;
31368;SDS011;18004;48.416;10.066;2023-02-28T01:21:32;2.17;;;1.08;;
31368;SDS011;18004;48.416;10.066;2023-02-28T01:23:58;0.93;;;0.82;;
31368;SDS011;18004;48.416;10.066;2023-02-28T01:26:23;1.58;;;0.93;;
31368;SDS011;18004;48.416;10.066;2023-02-28T01:28:50;1.52;;;0.93;;
31368;SDS011;18004;48.416;10.066;2023-02-28T01:31:17;1.38;;;0.43;;
31368;SDS011;18004;48.416;10.066;2023-02-28T01:33:44;0.60;;;0.60;;
31368;SDS011;18004;48.416;10.066;2023-02-28T01:36:15;1.83;;;1.30;;
31368;SDS011;18004;48.416;10.066;2023-02-28T01:38:43;2.38;;;1.27;;
31368;SDS011;18004;48.416;10.066;2023-02-28T01:41:12;4.20;;;1.33;;
31368;SDS011;18004;48.416;10.066;2023-02-28T01:46:28;3.50;;;1.02;;
31368;SDS011;18004;48.416;10.066;2023-02-28T01:49:04;4.20;;;0.95;;
31368;SDS011;18004;48.416;10.066;2023-02-28T01:54:24;1.58;;;0.85;;
31368;SDS011;18004;48.416;10.066;2023-02-28T01:56:53;1.05;;;0.95;;
31368;SDS011;18004;48.416;10.066;2023-02-28T01:59:27;1.60;;;1.17;;
31368;SDS011;18004;48.416;10.066;2023-02-28T02:01:59;0.45;;;0.40;;
31368;SDS011;18004;48.416;10.066;2023-02-28T02:04:26;0.75;;;0.75;;
31368;SDS011;18004;48.416;10.066;2023-02-28T02:06:57;0.88;;;0.73;;
31368;SDS011;18004;48.416;10.066;2023-02-28T02:09:24;1.67;;;1.35;;
31368;SDS011;18004;48.416;10.066;2023-02-28T02:11:49;0.60;;;0.60;;
31368;SDS011;18004;48.416;10.066;2023-02-28T02:14:20;5.03;;;1.15;;
31368;SDS011;18004;48.416;10.066;2023-02-28T02:17:00;1.10;;;1.00;;
31368;SDS011;18004;48.416;10.066;2023-02-28T02:20:13;0.60;;;0.60;;
31368;SDS011;18004;48.416;10.066;2023-02-28T02:23:02;1.52;;;0.93;;
31368;SDS011;18004;48.416;10.066;2023-02-28T02:25:49;2.55;;;1.27;;
31368;SDS011;18004;48.416;10.066;2023-02-28T02:31:42;1.35;;;1.08;;
31368;SDS011;18004;48.416;10.066;2023-02-28T02:36:59;1.55;;;1.42;;
31368;SDS011;18004;48.416;10.066;2023-02-28T02:41:56;4.63;;;1.15;;
31368;SDS011;18004;48.416;10.066;2023-02-28T02:47:10;1.92;;;1.40;;
31368;SDS011;18004;48.416;10.066;2023-02-28T02:49:39;1.50;;;1.15;;
31368;SDS011;18004;48.416;10.066;2023-02-28T02:52:11;2.05;;;1.35;;
31368;SDS011;18004;48.416;10.066;2023-02-28T02:54:43;4.82;;;1.48;;
31368;SDS011;18004;48.416;10.066;2023-02-28T02:57:14;1.13;;;0.80;;
31368;SDS011;18004;48.416;10.066;2023-02-28T02:59:44;3.13;;;1.20;;
31368;SDS011;18004;48.416;10.066;2023-02-28T03:02:11;2.45;;;1.42;;
31368;SDS011;18004;48.416;10.066;2023-02-28T03:04:43;5.00;;;1.10;;
31368;SDS011;18004;48.416;10.066;2023-02-28T03:07:12;1.30;;;1.20;;
31368;SDS011;18004;48.416;10.066;2023-02-28T03:09:38;0.98;;;0.93;;
31368;SDS011;18004;48.416;10.066;2023-02-28T03:12:04;1.92;;;1.50;;
31368;SDS011;18004;48.416;10.066;2023-02-28T03:20:27;1.67;;;1.50;;
31368;SDS011;18004;48.416;10.066;2023-02-28T03:23:19;0.75;;;0.75;;
31368;SDS011;18004;48.416;10.066;2023-02-28T03:28:43;0.80;;;0.80;;
31368;SDS011;18004;48.416;10.066;2023-02-28T03:33:54;1.65;;;1.40;;
31368;SDS011;18004;48.416;10.066;2023-02-28T03:36:38;4.65;;;1.35;;
31368;SDS011;18004;48.416;10.066;2023-02-28T03:39:11;0.98;;;0.95;;
31368;SDS011;18004;48.416;10.066;2023-02-28T03:41:43;1.45;;;1.17;;
31368;SDS011;18004;48.416;10.066;2023-02-28T03:44:14;2.58;;;1.10;;
31368;SDS011;18004;48.416;10.066;2023-02-28T03:47:10;1.83;;;1.55;;
31368;SDS011;18004;48.416;10.066;2023-02-28T03:49:53;6.43;;;1.38;;
31368;SDS011;18004;48.416;10.066;2023-02-28T03:52:34;1.85;;;1.23;;
31368;SDS011;18004;48.416;10.066;2023-02-28T03:55:05;3.33;;;1.85;;
31368;SDS011;18004;48.416;10.066;2023-02-28T03:57:53;1.90;;;1.70;;
31368;SDS011;18004;48.416;10.066;2023-02-28T04:00:36;1.85;;;1.48;;
31368;SDS011;18004;48.416;10.066;2023-02-28T04:03:05;7.38;;;1.90;;
31368;SDS011;18004;48.416;10.066;2023-02-28T04:05:31;1.75;;;1.65;;
31368;SDS011;18004;48.416;10.066;2023-02-28T04:08:07;1.90;;;1.42;;
31368;SDS011;18004;48.416;10.066;2023-02-28T04:10:33;3.70;;;2.30;;
31368;SDS011;18004;48.416;10.066;2023-02-28T04:12:59;4.63;;;2.03;;
31368;SDS011;18004;48.416;10.066;2023-02-28T04:15:25;2.53;;;1.90;;
31368;SDS011;18004;48.416;10.066;2023-02-28T04:17:52;2.25;;;1.65;;
31368;SDS011;18004;48.416;10.066;2023-02-28T04:20:18;1.90;;;1.52;;
31368;SDS011;18004;48.416;10.066;2023-02-28T04:22:44;3.22;;;1.88;;
31368;SDS011;18004;48.416;10.066;2023-02-28T04:25:10;8.18;;;1.77;;
31368;SDS011;18004;48.416;10.066;2023-02-28T04:27:35;5.25;;;2.58;;
31368;SDS011;18004;48.416;10.066;2023-02-28T04:30:01;2.13;;;1.25;;
31368;SDS011;18004;48.416;10.066;2023-02-28T04:32:28;3.38;;;2.45;;
31368;SDS011;18004;48.416;10.066;2023-02-28T04:34:53;2.47;;;1.60;;
31368;SDS011;18004;48.416;10.066;2023-02-28T04:37:19;6.45;;;2.03;;
31368;SDS011;18004;48.416;10.066;2023-02-28T04:39:45;8.30;;;1.70;;
31368;SDS011;18004;48.416;10.066;2023-02-28T04:42:11;2.17;;;1.35;;
31368;SDS011;18004;48.416;10.066;2023-02-28T04:44:37;4.95;;;2.42;;
31368;SDS011;18004;48.416;10.066;2023-02-28T04:47:03;3.00;;;2.08;;
31368;SDS011;18004;48.416;10.066;2023-02-28T04:49:28;2.42;;;1.70;;
31368;SDS011;18004;48.416;10.066;2023-02-28T04:51:54;2.63;;;1.77;;
31368;SDS011;18004;48.416;10.066;2023-02-28T04:54:20;2.35;;;2.08;;
31368;SDS011;18004;48.416;10.066;2023-02-28T04:56:46;3.00;;;2.13;;
31368;SDS011;18004;48.416;10.066;2023-02-28T04:59:14;2.38;;;1.55;;
31368;SDS011;18004;48.416;10.066;2023-02-28T05:01:40;8.57;;;1.77;;
31368;SDS011;18004;48.416;10.066;2023-02-28T05:06:37;2.50;;;1.98;;
31368;SDS011;18004;48.416;10.066;2023-02-28T05:09:03;4.18;;;2.08;;
31368;SDS011;18004;48.416;10.066;2023-02-28T05:11:30;2.75;;;2.25;;
31368;SDS011;18004;48.416;10.066;2023-02-28T05:14:04;1.05;;;0.95;;
31368;SDS011;18004;48.416;10.066;2023-02-28T05:16:34;3.55;;;2.20;;
31368;SDS011;18004;48.416;10.066;2023-02-28T05:18:59;3.15;;;2.75;;
31368;SDS011;18004;48.416;10.066;2023-02-28T05:21:27;10.73;;;2.58;;
31368;SDS011;18004;48.416;10.066;2023-02-28T05:26:25;1.90;;;1.65;;
31368;SDS011;18004;48.416;10.066;2023-02-28T05:28:51;3.83;;;2.25;;
31368;SDS011;18004;48.416;10.066;2023-02-28T05:31:18;4.75;;;2.33;;
31368;SDS011;18004;48.416;10.066;2023-02-28T05:33:44;4.88;;;2.90;;
31368;SDS011;18004;48.416;10.066;2023-02-28T05:36:10;3.15;;;2.17;;
31368;SDS011;18004;48.416;10.066;2023-02-28T05:38:36;2.97;;;2.42;;
31368;SDS011;18004;48.416;10.066;2023-02-28T05:41:10;1.88;;;1.70;;
31368;SDS011;18004;48.416;10.066;2023-02-28T05:43:37;2.97;;;2.50;;
31368;SDS011;18004;48.416;10.066;2023-02-28T05:46:04;6.78;;;3.20;;
31368;SDS011;18004;48.416;10.066;2023-02-28T05:48:30;4.43;;;2.53;;
31368;SDS011;18004;48.416;10.066;2023-02-28T05:50:57;2.60;;;2.17;;
31368;SDS011;18004;48.416;10.066;2023-02-28T05:53:23;5.55;;;2.63;;
31368;SDS011;18004;48.416;10.066;2023-02-28T05:55:49;5.03;;;3.00;;
31368;SDS011;18004;48.416;10.066;2023-02-28T05:58:15;2.50;;;1.95;;
31368;SDS011;18004;48.416;10.066;2023-02-28T06:00:40;3.65;;;2.17;;
31368;SDS011;18004;48.416;10.066;2023-02-28T06:03:06;6.10;;;3.20;;
31368;SDS011;18004;48.416;10.066;2023-02-28T06:05:32;3.30;;;2.47;;
31368;SDS011;18004;48.416;10.066;2023-02-28T06:07:58;4.97;;;2.70;;
31368;SDS011;18004;48.416;10.066;2023-02-28T06:10:23;2.55;;;1.90;;
31368;SDS011;18004;48.416;10.066;2023-02-28T06:12:49;13.15;;;3.33;;
31368;SDS011;18004;48.416;10.066;2023-02-28T06:15:15;3.75;;;3.22;;
31368;SDS011;18004;48.416;10.066;2023-02-28T06:17:42;4.28;;;2.95;;
31368;SDS011;18004;48.416;10.066;2023-02-28T06:20:09;10.15;;;2.80;;
31368;SDS011;18004;48.416;10.066;2023-02-28T06:22:38;3.10;;;2.63;;
31368;SDS011;18004;48.416;10.066;2023-02-28T06:25:05;3.83;;;2.78;;
31368;SDS011;18004;48.416;10.066;2023-02-28T06:27:32;2.22;;;2.03;;
31368;SDS011;18004;48.416;10.066;2023-02-28T06:29:58;5.20;;;3.42;;
31368;SDS011;18004;48.416;10.066;2023-02-28T06:32:24;2.88;;;2.13;;
31368;SDS011;18004;48.416;10.066;2023-02-28T06:34:50;3.78;;;2.50;;
31368;SDS011;18004;48.416;10.066;2023-02-28T06:37:16;5.97;;;3.53;;
31368;SDS011;18004;48.416;10.066;2023-02-28T06:39:42;2.10;;;1.83;;
31368;SDS011;18004;48.416;10.066;2023-02-28T06:42:09;8.02;;;3.50;;
31368;SDS011;18004;48.416;10.066;2023-02-28T06:44:34;5.75;;;2.53;;
31368;SDS011;18004;48.416;10.066;2023-02-28T06:47:04;7.25;;;3.47;;
31368;SDS011;18004;48.416;10.066;2023-02-28T06:49:31;6.60;;;4.20;;
31368;SDS011;18004;48.416;10.066;2023-02-28T06:51:59;7.07;;;3.40;;
31368;SDS011;18004;48.416;10.066;2023-02-28T06:54:25;3.25;;;2.95;;
31368;SDS011;18004;48.416;10.066;2023-02-28T06:56:50;3.47;;;3.13;;
31368;SDS011;18004;48.416;10.066;2023-02-28T06:59:16;3.10;;;2.35;;
31368;SDS011;18004;48.416;10.066;2023-02-28T07:01:42;7.53;;;3.72;;
31368;SDS011;18004;48.416;10.066;2023-02-28T07:04:08;4.65;;;2.78;;
31368;SDS011;18004;48.416;10.066;2023-02-28T07:06:34;3.33;;;2.85;;
31368;SDS011;18004;48.416;10.066;2023-02-28T07:09:00;4.32;;;3.72;;
31368;SDS011;18004;48.416;10.066;2023-02-28T07:11:26;9.63;;;4.05;;
31368;SDS011;18004;48.416;10.066;2023-02-28T07:13:53;5.82;;;3.55;;
31368;SDS011;18004;48.416;10.066;2023-02-28T07:16:20;5.65;;;2.08;;
31368;SDS011;18004;48.416;10.066;2023-02-28T07:18:46;5.78;;;2.80;;
31368;SDS011;18004;48.416;10.066;2023-02-28T07:21:13;4.10;;;2.47;;
31368;SDS011;18004;48.416;10.066;2023-02-28T07:23:39;3.42;;;3.13;;
31368;SDS011;18004;48.416;10.066;2023-02-28T07:26:07;4.32;;;3.15;;
31368;SDS011;18004;48.416;10.066;2023-02-28T07:28:36;4.15;;;2.63;;
31368;SDS011;18004;48.416;10.066;2023-02-28T07:31:06;7.68;;;3.65;;
31368;SDS011;18004;48.416;10.066;2023-02-28T07:33:33;4.10;;;3.13;;
31368;SDS011;18004;48.416;10.066;2023-02-28T07:36:06;6.78;;;4.10;;
31368;SDS011;18004;48.416;10.066;2023-02-28T07:38:34;5.10;;;3.60;;
31368;SDS011;18004;48.416;10.066;2023-02-28T07:41:01;5.35;;;3.83;;
31368;SDS011;18004;48.416;10.066;2023-02-28T07:43:29;3.40;;;3.10;;
31368;SDS011;18004;48.416;10.066;2023-02-28T07:46:00;3.55;;;2.67;;
31368;SDS011;18004;48.416;10.066;2023-02-28T07:48:34;5.10;;;3.30;;
31368;SDS011;18004;48.416;10.066;2023-02-28T07:51:00;8.65;;;4.03;;
31368;SDS011;18004;48.416;10.066;2023-02-28T07:53:27;6.18;;;4.68;;
31368;SDS011;18004;48.416;10.066;2023-02-28T07:55:57;7.80;;;4.18;;
31368;SDS011;18004;48.416;10.066;2023-02-28T07:58:23;6.38;;;3.10;;
31368;SDS011;18004;48.416;10.066;2023-02-28T08:00:50;4.18;;;2.42;;
31368;SDS011;18004;48.416;10.066;2023-02-28T08:03:17;5.85;;;4.13;;
31368;SDS011;18004;48.416;10.066;2023-02-28T08:05:44;6.30;;;4.38;;
31368;SDS011;18004;48.416;10.066;2023-02-28T08:08:10;2.53;;;2.33;;
31368;SDS011;18004;48.416;10.066;2023-02-28T08:10:36;4.88;;;4.18;;
31368;SDS011;18004;48.416;10.066;2023-02-28T08:13:02;4.05;;;2.83;;
31368;SDS011;18004;48.416;10.066;2023-02-28T08:15:28;4.75;;;2.92;;
31368;SDS011;18004;48.416;10.066;2023-02-28T08:17:54;3.13;;;2.28;;
31368;SDS011;18004;48.416;10.066;2023-02-28T08:20:21;3.80;;;2.60;;
31368;SDS011;18004;48.416;10.066;2023-02-28T08:22:48;3.10;;;2.80;;
31368;SDS011;18004;48.416;10.066;2023-02-28T08:25:15;3.72;;;2.80;;
31368;SDS011;18004;48.416;10.066;2023-02-28T08:27:41;3.45;;;2.97;;
31368;SDS011;18004;48.416;10.066;2023-02-28T08:30:07;1.85;;;1.65;;
31368;SDS011;18004;48.416;10.066;2023-02-28T08:32:38;5.75;;;3.95;;
31368;SDS011;18004;48.416;10.066;2023-02-28T08:35:04;2.53;;;2.33;;
31368;SDS011;18004;48.416;10.066;2023-02-28T08:37:30;6.53;;;3.92;;
31368;SDS011;18004;48.416;10.066;2023-02-28T08:39:56;3.17;;;2.83;;
31368;SDS011;18004;48.416;10.066;2023-02-28T08:42:22;6.38;;;3.47;;
31368;SDS011;18004;48.416;10.066;2023-02-28T08:44:48;3.17;;;2.20;;
31368;SDS011;18004;48.416;10.066;2023-02-28T08:47:14;4.05;;;2.42;;
31368;SDS011;18004;48.416;10.066;2023-02-28T08:49:40;5.45;;;3.25;;
31368;SDS011;18004;48.416;10.066;2023-02-28T08:52:06;5.53;;;2.65;;
31368;SDS011;18004;48.416;10.066;2023-02-28T08:54:32;4.38;;;2.95;;
31368;SDS011;18004;48.416;10.066;2023-02-28T08:56:59;9.60;;;4.55;;
31368;SDS011;18004;48.416;10.066;2023-02-28T08:59:25;4.93;;;3.65;;
31368;SDS011;18004;48.416;10.066;2023-02-28T09:01:51;7.65;;;4.00;;
31368;SDS011;18004;48.416;10.066;2023-02-28T09:04:17;7.13;;;3.65;;
31368;SDS011;18004;48.416;10.066;2023-02-28T09:06:42;5.47;;;2.88;;
31368;SDS011;18004;48.416;10.066;2023-02-28T09:09:09;6.53;;;4.30;;
31368;SDS011;18004;48.416;10.066;2023-02-28T09:11:35;7.50;;;4.07;;
31368;SDS011;18004;48.416;10.066;2023-02-28T09:14:01;4.60;;;3.95;;
31368;SDS011;18004;48.416;10.066;2023-02-28T09:16:29;9.13;;;4.82;;
31368;SDS011;18004;48.416;10.066;2023-02-28T09:18:56;8.52;;;4.72;;
31368;SDS011;18004;48.416;10.066;2023-02-28T09:21:22;7.00;;;4.25;;
31368;SDS011;18004;48.416;10.066;2023-02-28T09:23:48;9.13;;;4.57;;
31368;SDS011;18004;48.416;10.066;2023-02-28T09:26:16;7.38;;;3.88;;
31368;SDS011;18004;48.416;10.066;2023-02-28T09:28:44;6.30;;;4.70;;
31368;SDS011;18004;48.416;10.066;2023-02-28T09:31:11;5.65;;;4.00;;
31368;SDS011;18004;48.416;10.066;2023-02-28T09:33:39;6.78;;;3.10;;
31368;SDS011;18004;48.416;10.066;2023-02-28T09:36:05;2.53;;;2.17;;
31368;SDS011;18004;48.416;10.066;2023-02-28T09:38:31;4.50;;;2.58;;
31368;SDS011;18004;48.416;10.066;2023-02-28T09:41:04;13.70;;;4.47;;
31368;SDS011;18004;48.416;10.066;2023-02-28T09:43:38;6.00;;;3.70;;
31368;SDS011;18004;48.416;10.066;2023-02-28T09:46:14;4.55;;;3.67;;
31368;SDS011;18004;48.416;10.066;2023-02-28T09:48:59;6.43;;;2.80;;
31368;SDS011;18004;48.416;10.066;2023-02-28T09:54:21;6.32;;;3.92;;
31368;SDS011;18004;48.416;10.066;2023-02-28T10:04:54;5.65;;;3.83;;
31368;SDS011;18004;48.416;10.066;2023-02-28T10:10:22;3.17;;;2.80;;
31368;SDS011;18004;48.416;10.066;2023-02-28T10:13:04;6.80;;;4.88;;
31368;SDS011;18004;48.416;10.066;2023-02-28T10:15:40;6.43;;;4.38;;
31368;SDS011;18004;48.416;10.066;2023-02-28T10:18:11;6.28;;;3.97;;
31368;SDS011;18004;48.416;10.066;2023-02-28T10:20:41;4.05;;;3.20;;
31368;SDS011;18004;48.416;10.066;2023-02-28T10:25:38;5.60;;;3.35;;
31368;SDS011;18004;48.416;10.066;2023-02-28T10:28:11;6.85;;;4.00;;
31368;SDS011;18004;48.416;10.066;2023-02-28T10:30:42;5.57;;;2.78;;
31368;SDS011;18004;48.416;10.066;2023-02-28T10:33:45;3.78;;;3.33;;
31368;SDS011;18004;48.416;10.066;2023-02-28T10:36:03;13.57;;;5.03;;
31368;SDS011;18004;48.416;10.066;2023-02-28T10:38:35;3.08;;;2.30;;
31368;SDS011;18004;48.416;10.066;2023-02-28T10:41:05;2.75;;;2.13;;
31368;SDS011;18004;48.416;10.066;2023-02-28T10:43:38;6.30;;;3.83;;
31368;SDS011;18004;48.416;10.066;2023-02-28T10:48:48;7.95;;;5.25;;
31368;SDS011;18004;48.416;10.066;2023-02-28T10:51:23;8.10;;;4.57;;
31368;SDS011;18004;48.416;10.066;2023-02-28T10:53:50;8.88;;;4.10;;
31368;SDS011;18004;48.416;10.066;2023-02-28T10:56:21;7.68;;;4.22;;
31368;SDS011;18004;48.416;10.066;2023-02-28T11:01:40;5.97;;;4.30;;
31368;SDS011;18004;48.416;10.066;2023-02-28T11:07:01;6.47;;;4.60;;
31368;SDS011;18004;48.416;10.066;2023-02-28T11:09:30;8.60;;;5.20;;
31368;SDS011;18004;48.416;10.066;2023-02-28T11:12:00;8.43;;;4.95;;
31368;SDS011;18004;48.416;10.066;2023-02-28T11:14:32;5.95;;;3.75;;
31368;SDS011;18004;48.416;10.066;2023-02-28T11:17:15;10.65;;;4.95;;
31368;SDS011;18004;48.416;10.066;2023-02-28T11:19:46;5.78;;;2.65;;
31368;SDS011;18004;48.416;10.066;2023-02-28T11:22:18;9.80;;;4.00;;
31368;SDS011;18004;48.416;10.066;2023-02-28T11:24:47;10.30;;;4.85;;
31368;SDS011;18004;48.416;10.066;2023-02-28T11:29:59;11.35;;;4.25;;
31368;SDS011;18004;48.416;10.066;2023-02-28T11:32:26;7.25;;;4.50;;
31368;SDS011;18004;48.416;10.066;2023-02-28T11:37:29;9.13;;;4.10;;
31368;SDS011;18004;48.416;10.066;2023-02-28T11:39:57;6.18;;;4.15;;
31368;SDS011;18004;48.416;10.066;2023-02-28T11:47:48;8.13;;;4.53;;
31368;SDS011;18004;48.416;10.066;2023-02-28T11:50:49;3.72;;;2.85;;
31368;SDS011;18004;48.416;10.066;2023-02-28T11:56:41;7.75;;;5.35;;
31368;SDS011;18004;48.416;10.066;2023-02-28T12:02:06;12.27;;;6.25;;
31368;SDS011;18004;48.416;10.066;2023-02-28T12:15:48;6.63;;;4.25;;
31368;SDS011;18004;48.416;10.066;2023-02-28T12:26:43;7.10;;;3.92;;
31368;SDS011;18004;48.416;10.066;2023-02-28T12:29:13;7.45;;;4.30;;
31368;SDS011;18004;48.416;10.066;2023-02-28T12:31:41;8.10;;;4.88;;
31368;SDS011;18004;48.416;10.066;2023-02-28T12:34:25;4.07;;;3.22;;
31368;SDS011;18004;48.416;10.066;2023-02-28T12:37:15;7.07;;;3.75;;
31368;SDS011;18004;48.416;10.066;2023-02-28T12:39:49;9.05;;;4.78;;
31368;SDS011;18004;48.416;10.066;2023-02-28T12:42:25;8.90;;;4.03;;
31368;SDS011;18004;48.416;10.066;2023-02-28T12:44:58;7.18;;;4.25;;
31368;SDS011;18004;48.416;10.066;2023-02-28T12:47:26;3.88;;;3.22;;
31368;SDS011;18004;48.416;10.066;2023-02-28T12:49:59;9.02;;;4.60;;
31368;SDS011;18004;48.416;10.066;2023-02-28T12:55:40;9.30;;;4.90;;
31368;SDS011;18004;48.416;10.066;2023-02-28T12:58:10;5.55;;;3.58;;
31368;SDS011;18004;48.416;10.066;2023-02-28T13:00:58;7.13;;;4.15;;
31368;SDS011;18004;48.416;10.066;2023-02-28T13:07:05;10.20;;;4.60;;
31368;SDS011;18004;48.416;10.066;2023-02-28T13:09:50;6.63;;;4.18;;
31368;SDS011;18004;48.416;10.066;2023-02-28T13:12:21;6.25;;;4.22;;
31368;SDS011;18004;48.416;10.066;2023-02-28T13:14:48;5.85;;;3.75;;
31368;SDS011;18004;48.416;10.066;2023-02-28T13:17:21;4.95;;;2.65;;
31368;SDS011;18004;48.416;10.066;2023-02-28T13:25:04;3.75;;;2.97;;
31368;SDS011;18004;48.416;10.066;2023-02-28T13:27:49;5.53;;;3.53;;
31368;SDS011;18004;48.416;10.066;2023-02-28T13:33:27;6.82;;;4.38;;
31368;SDS011;18004;48.416;10.066;2023-02-28T13:39:00;6.22;;;3.53;;
31368;SDS011;18004;48.416;10.066;2023-02-28T13:46:33;7.65;;;3.75;;
31368;SDS011;18004;48.416;10.066;2023-02-28T13:51:53;5.25;;;3.67;;
31368;SDS011;18004;48.416;10.066;2023-02-28T14:00:27;8.30;;;4.18;;
31368;SDS011;18004;48.416;10.066;2023-02-28T14:03:15;6.38;;;4.30;;
31368;SDS011;18004;48.416;10.066;2023-02-28T14:05:47;6.13;;;3.90;;
31368;SDS011;18004;48.416;10.066;2023-02-28T14:11:43;3.97;;;3.07;;
31368;SDS011;18004;48.416;10.066;2023-02-28T14:14:52;4.97;;;2.88;;
31368;SDS011;18004;48.416;10.066;2023-02-28T14:17:08;6.00;;;3.88;;
31368;SDS011;18004;48.416;10.066;2023-02-28T14:19:39;5.03;;;3.72;;
31368;SDS011;18004;48.416;10.066;2023-02-28T14:37:50;4.82;;;2.83;;
31368;SDS011;18004;48.416;10.066;2023-02-28T14:40:30;7.57;;;3.83;;
31368;SDS011;18004;48.416;10.066;2023-02-28T14:43:03;10.57;;;3.67;;
31368;SDS011;18004;48.416;10.066;2023-02-28T14:45:31;3.58;;;3.03;;
31368;SDS011;18004;48.416;10.066;2023-02-28T14:47:58;6.35;;;3.15;;
31368;SDS011;18004;48.416;10.066;2023-02-28T14:50:33;4.57;;;3.15;;
31368;SDS011;18004;48.416;10.066;2023-02-28T14:53:01;4.55;;;3.58;;
31368;SDS011;18004;48.416;10.066;2023-02-28T14:55:32;4.60;;;3.38;;
31368;SDS011;18004;48.416;10.066;2023-02-28T14:58:01;2.50;;;1.85;;
31368;SDS011;18004;48.416;10.066;2023-02-28T15:00:49;5.82;;;4.05;;
31368;SDS011;18004;48.416;10.066;2023-02-28T15:03:31;5.05;;;4.10;;
31368;SDS011;18004;48.416;10.066;2023-02-28T15:05:59;4.78;;;3.08;;
31368;SDS011;18004;48.416;10.066;2023-02-28T15:08:30;8.18;;;3.80;;
31368;SDS011;18004;48.416;10.066;2023-02-28T15:13:33;6.20;;;3.47;;
31368;SDS011;18004;48.416;10.066;2023-02-28T15:16:11;4.63;;;3.38;;
31368;SDS011;18004;48.416;10.066;2023-02-28T15:18:43;6.50;;;3.80;;
31368;SDS011;18004;48.416;10.066;2023-02-28T15:21:21;7.78;;;4.15;;
31368;SDS011;18004;48.416;10.066;2023-02-28T15:24:01;6.72;;;4.03;;
31368;SDS011;18004;48.416;10.066;2023-02-28T15:26:39;7.60;;;3.50;;
31368;SDS011;18004;48.416;10.066;2023-02-28T15:29:15;6.00;;;3.83;;
31368;SDS011;18004;48.416;10.066;2023-02-28T15:31:45;4.97;;;3.28;;
31368;SDS011;18004;48.416;10.066;2023-02-28T15:34:20;4.82;;;3.10;;
31368;SDS011;18004;48.416;10.066;2023-02-28T15:36:48;2.80;;;2.55;;
31368;SDS011;18004;48.416;10.066;2023-02-28T15:39:24;12.95;;;3.80;;
31368;SDS011;18004;48.416;10.066;2023-02-28T15:42:10;13.80;;;4.93;;
31368;SDS011;18004;48.416;10.066;2023-02-28T15:44:47;5.75;;;3.40;;
31368;SDS011;18004;48.416;10.066;2023-02-28T15:47:18;3.15;;;2.60;;
31368;SDS011;18004;48.416;10.066;2023-02-28T15:49:50;6.47;;;2.50;;
31368;SDS011;18004;48.416;10.066;2023-02-28T15:52:24;5.38;;;3.63;;
31368;SDS011;18004;48.416;10.066;2023-02-28T15:54:59;6.85;;;4.40;;
31368;SDS011;18004;48.416;10.066;2023-02-28T15:57:33;7.22;;;4.00;;
31368;SDS011;18004;48.416;10.066;2023-02-28T16:00:02;2.55;;;2.25;;
31368;SDS011;18004;48.416;10.066;2023-02-28T16:02:35;3.25;;;2.55;;
31368;SDS011;18004;48.416;10.066;2023-02-28T16:10:00;6.60;;;4.45;;
31368;SDS011;18004;48.416;10.066;2023-02-28T16:12:30;11.10;;;4.18;;
31368;SDS011;18004;48.416;10.066;2023-02-28T16:14:59;7.95;;;4.07;;
31368;SDS011;18004;48.416;10.066;2023-02-28T16:17:32;6.57;;;3.20;;
31368;SDS011;18004;48.416;10.066;2023-02-28T16:20:00;4.13;;;3.10;;
31368;SDS011;18004;48.416;10.066;2023-02-28T16:22:30;8.30;;;3.92;;
31368;SDS011;18004;48.416;10.066;2023-02-28T16:24:56;6.47;;;3.90;;
31368;SDS011;18004;48.416;10.066;2023-02-28T16:27:30;7.68;;;3.97;;
31368;SDS011;18004;48.416;10.066;2023-02-28T16:29:57;8.90;;;3.35;;
31368;SDS011;18004;48.416;10.066;2023-02-28T16:32:23;5.88;;;3.63;;
31368;SDS011;18004;48.416;10.066;2023-02-28T16:34:49;5.93;;;3.95;;
31368;SDS011;18004;48.416;10.066;2023-02-28T16:37:16;4.18;;;1.55;;
31368;SDS011;18004;48.416;10.066;2023-02-28T16:39:43;8.93;;;4.25;;
31368;SDS011;18004;48.416;10.066;2023-02-28T16:42:17;4.05;;;3.13;;
31368;SDS011;18004;48.416;10.066;2023-02-28T16:44:47;6.93;;;3.90;;
31368;SDS011;18004;48.416;10.066;2023-02-28T16:47:13;6.90;;;3.58;;
31368;SDS011;18004;48.416;10.066;2023-02-28T16:49:39;7.15;;;3.90;;
31368;SDS011;18004;48.416;10.066;2023-02-28T16:52:07;5.53;;;4.05;;
31368;SDS011;18004;48.416;10.066;2023-02-28T16:54:33;4.90;;;3.63;;
31368;SDS011;18004;48.416;10.066;2023-02-28T16:56:59;2.85;;;2.55;;
31368;SDS011;18004;48.416;10.066;2023-02-28T16:59:25;7.45;;;4.30;;
31368;SDS011;18004;48.416;10.066;2023-02-28T17:01:52;6.65;;;4.13;;
31368;SDS011;18004;48.416;10.066;2023-02-28T17:04:19;5.10;;;3.80;;
31368;SDS011;18004;48.416;10.066;2023-02-28T17:06:45;7.63;;;4.28;;
31368;SDS011;18004;48.416;10.066;2023-02-28T17:09:15;9.35;;;4.55;;
31368;SDS011;18004;48.416;10.066;2023-02-28T17:11:43;7.85;;;4.68;;
31368;SDS011;18004;48.416;10.066;2023-02-28T17:14:09;11.60;;;5.88;;
31368;SDS011;18004;48.416;10.066;2023-02-28T17:16:35;11.52;;;7.28;;
31368;SDS011;18004;48.416;10.066;2023-02-28T17:19:05;11.60;;;5.93;;
31368;SDS011;18004;48.416;10.066;2023-02-28T17:21:36;9.13;;;5.03;;
31368;SDS011;18004;48.416;10.066;2023-02-28T17:24:02;9.85;;;5.68;;